createdAt,value
2023-01-12T00:00:33.846Z,5.30
2023-01-12T00:03:05.643Z,5.30
2023-01-12T00:05:37.398Z,5.20
2023-01-12T00:08:09.118Z,5.20
2023-01-12T00:10:40.808Z,5.20
2023-01-12T00:13:12.552Z,5.10
2023-01-12T00:16:03.101Z,5.00
2023-01-12T00:18:34.845Z,5.00
2023-01-12T00:21:07.834Z,4.90
2023-01-12T00:23:39.643Z,4.90
2023-01-12T00:26:11.926Z,4.90
2023-01-12T00:28:43.690Z,4.90
2023-01-12T00:31:15.546Z,5.00
2023-01-12T00:33:47.344Z,5.00
2023-01-12T00:36:19.579Z,5.00
2023-01-12T00:38:51.376Z,5.00
2023-01-12T00:41:41.839Z,4.90
2023-01-12T00:44:32.381Z,4.90
2023-01-12T00:47:06.502Z,5.00
2023-01-12T00:49:39.673Z,4.90
2023-01-12T00:52:24.910Z,4.90
2023-01-12T00:55:01.416Z,4.90
2023-01-12T00:57:33.382Z,4.90
2023-01-12T01:00:05.667Z,4.80
2023-01-12T01:02:37.592Z,4.80
2023-01-12T01:05:09.603Z,4.80
2023-01-12T01:07:41.350Z,4.70
2023-01-12T01:10:14.400Z,4.70
2023-01-12T01:12:46.141Z,4.80
2023-01-12T01:15:18.286Z,4.70
2023-01-12T01:17:49.970Z,4.70
2023-01-12T01:20:21.761Z,4.60
2023-01-12T01:22:53.509Z,4.60
2023-01-12T01:25:25.250Z,4.60
2023-01-12T01:27:56.964Z,4.60
2023-01-12T01:30:28.664Z,4.60
2023-01-12T01:33:00.378Z,4.60
2023-01-12T01:35:32.074Z,4.60
2023-01-12T01:38:05.111Z,4.60
2023-01-12T01:40:42.552Z,4.60
2023-01-12T01:43:16.032Z,4.60
2023-01-12T01:45:56.044Z,4.60
2023-01-12T01:48:31.571Z,4.60
2023-01-12T01:51:08.539Z,4.50
2023-01-12T01:53:43.241Z,4.50
2023-01-12T01:56:20.903Z,4.60
2023-01-12T01:58:55.921Z,4.60
2023-01-12T02:01:28.054Z,4.60
2023-01-12T02:04:00.832Z,4.60
2023-01-12T02:06:33.170Z,4.70
2023-01-12T02:09:18.137Z,4.70
2023-01-12T02:12:09.650Z,4.70
2023-01-12T02:15:01.558Z,4.70
2023-01-12T02:18:02.992Z,4.80
2023-01-12T02:20:43.907Z,4.80
2023-01-12T02:23:49.104Z,4.80
2023-01-12T02:26:39.487Z,4.80
2023-01-12T02:29:25.889Z,4.80
2023-01-12T02:32:36.683Z,4.90
2023-01-12T02:35:08.411Z,4.90
2023-01-12T02:37:54.465Z,4.90
2023-01-12T02:40:36.655Z,4.90
2023-01-12T02:43:28.588Z,4.90
2023-01-12T02:46:18.886Z,4.90
2023-01-12T02:48:53.502Z,4.90
2023-01-12T02:51:25.183Z,4.90
2023-01-12T02:54:06.155Z,4.90
2023-01-12T02:56:46.166Z,5.00
2023-01-12T02:59:28.705Z,5.00
2023-01-12T03:02:08.517Z,5.00
2023-01-12T03:04:41.933Z,5.00
2023-01-12T03:07:37.570Z,5.10
2023-01-12T03:10:39.372Z,5.10
2023-01-12T03:13:14.207Z,5.10
2023-01-12T03:15:49.899Z,5.10
2023-01-12T03:18:32.585Z,5.20
2023-01-12T03:21:26.882Z,5.20
2023-01-12T03:24:07.876Z,5.20
2023-01-12T03:26:43.945Z,5.30
2023-01-12T03:29:27.581Z,5.30
2023-01-12T03:31:59.713Z,5.30
2023-01-12T03:34:33.601Z,5.20
2023-01-12T03:37:17.244Z,5.20
2023-01-12T03:40:09.388Z,5.10
2023-01-12T03:43:02.977Z,5.10
2023-01-12T03:45:56.951Z,5.10
2023-01-12T03:48:38.321Z,5.10
2023-01-12T03:51:15.973Z,5.10
2023-01-12T03:53:49.488Z,5.10
2023-01-12T03:56:25.070Z,5.00
2023-01-12T03:58:57.149Z,5.00
2023-01-12T04:01:29.107Z,5.00
2023-01-12T04:04:00.943Z,6.10
2023-01-12T04:06:32.683Z,4.80
2023-01-12T04:09:04.497Z,4.80
2023-01-12T04:11:54.710Z,4.80
2023-01-12T04:14:26.505Z,4.90
2023-01-12T04:16:58.175Z,4.90
2023-01-12T04:19:29.852Z,4.80
2023-01-12T04:22:20.093Z,4.70
2023-01-12T04:24:51.987Z,4.70
2023-01-12T04:27:23.756Z,4.70
2023-01-12T04:29:55.516Z,4.70
2023-01-12T04:32:27.238Z,4.70
2023-01-12T04:34:58.948Z,4.70
2023-01-12T04:37:33.515Z,4.60
2023-01-12T04:40:06.744Z,4.60
2023-01-12T04:42:57.490Z,4.50
2023-01-12T04:45:31.872Z,4.50
2023-01-12T04:48:06.527Z,4.50
2023-01-12T04:50:39.747Z,4.40
2023-01-12T04:53:12.337Z,4.40
2023-01-12T04:55:44.294Z,4.40
2023-01-12T04:58:16.013Z,4.40
2023-01-12T05:00:47.745Z,4.40
2023-01-12T05:03:19.420Z,4.40
2023-01-12T05:05:51.139Z,4.30
2023-01-12T05:08:41.291Z,4.30
2023-01-12T05:11:13.187Z,4.30
2023-01-12T05:13:44.897Z,4.30
2023-01-12T05:16:18.161Z,4.30
2023-01-12T05:18:50.823Z,4.30
2023-01-12T05:21:23.961Z,4.20
2023-01-12T05:23:55.746Z,4.20
2023-01-12T05:26:27.439Z,4.20
2023-01-12T05:28:59.129Z,4.30
2023-01-12T05:31:30.842Z,4.30
2023-01-12T05:34:02.699Z,4.30
2023-01-12T05:36:34.456Z,4.30
2023-01-12T05:39:06.269Z,4.30
2023-01-12T05:41:38.055Z,4.30
2023-01-12T05:44:09.728Z,4.30
2023-01-12T05:46:41.456Z,4.40
2023-01-12T05:49:13.141Z,4.40
2023-01-12T05:51:44.885Z,4.40
2023-01-12T05:54:16.658Z,4.30
2023-01-12T05:56:49.936Z,4.30
2023-01-12T05:59:21.734Z,4.40
2023-01-12T06:01:53.521Z,4.30
2023-01-12T06:04:25.412Z,4.30
2023-01-12T06:06:57.152Z,4.30
2023-01-12T06:09:28.828Z,4.30
2023-01-12T06:12:19.316Z,4.30
2023-01-12T06:14:51.124Z,4.30
2023-01-12T06:17:22.830Z,4.30
2023-01-12T06:19:54.575Z,4.30
2023-01-12T06:22:27.208Z,4.30
2023-01-12T06:24:58.991Z,4.30
2023-01-12T06:27:35.302Z,4.20
2023-01-12T06:30:08.144Z,4.20
2023-01-12T06:32:41.512Z,4.20
2023-01-12T06:35:19.129Z,4.20
2023-01-12T06:37:56.153Z,4.20
2023-01-12T06:40:27.828Z,4.10
2023-01-12T06:42:59.567Z,4.10
2023-01-12T06:45:31.329Z,4.10
2023-01-12T06:48:03.265Z,4.10
2023-01-12T06:50:36.042Z,4.10
2023-01-12T06:53:07.976Z,4.10
2023-01-12T06:55:39.764Z,4.10
2023-01-12T06:58:11.475Z,4.10
2023-01-12T07:00:43.289Z,4.10
2023-01-12T07:03:19.598Z,4.10
2023-01-12T07:05:51.281Z,4.10
2023-01-12T07:08:23.037Z,4.10
2023-01-12T07:10:54.872Z,4.10
2023-01-12T07:13:26.598Z,4.10
2023-01-12T07:16:00.128Z,4.20
2023-01-12T07:18:31.968Z,4.20
2023-01-12T07:21:08.206Z,4.20
2023-01-12T07:23:42.121Z,4.30
2023-01-12T07:26:14.053Z,5.80
2023-01-12T07:28:45.751Z,4.20
2023-01-12T07:31:19.529Z,4.30
2023-01-12T07:33:53.546Z,4.30
2023-01-12T07:36:25.825Z,4.30
2023-01-12T07:38:57.594Z,4.30
2023-01-12T07:41:47.831Z,4.40
2023-01-12T07:44:19.531Z,4.40
2023-01-12T07:46:51.239Z,4.40
2023-01-12T07:49:23.093Z,4.40
2023-01-12T07:51:55.948Z,4.50
2023-01-12T07:54:27.648Z,4.50
2023-01-12T07:56:59.407Z,4.50
2023-01-12T07:59:31.095Z,4.60
2023-01-12T08:02:02.947Z,4.60
2023-01-12T08:04:34.844Z,4.70
2023-01-12T08:07:06.525Z,4.70
2023-01-12T08:09:38.237Z,4.70
2023-01-12T08:12:10.032Z,4.80
2023-01-12T08:14:42.346Z,4.80
2023-01-12T08:17:20.321Z,4.80
2023-01-12T08:20:01.071Z,4.90
2023-01-12T08:22:36.926Z,4.90
2023-01-12T08:25:16.469Z,5.00
2023-01-12T08:27:53.333Z,5.10
2023-01-12T08:30:25.900Z,5.10
2023-01-12T08:33:00.514Z,5.10
2023-01-12T08:35:35.124Z,5.20
2023-01-12T08:38:06.946Z,5.20
2023-01-12T08:40:57.625Z,5.20
2023-01-12T08:43:48.265Z,5.40
2023-01-12T08:46:20.138Z,5.50
2023-01-12T08:48:53.829Z,5.60
2023-01-12T08:51:25.554Z,5.70
2023-01-12T08:53:57.239Z,5.90
2023-01-12T08:56:29.613Z,5.90
2023-01-12T08:59:02.070Z,6.00
2023-01-12T09:01:34.070Z,6.10
2023-01-12T09:04:06.464Z,6.20
2023-01-12T09:06:41.532Z,6.30
2023-01-12T09:09:16.790Z,6.30
2023-01-12T09:11:49.418Z,6.30
2023-01-12T09:14:21.218Z,6.20
2023-01-12T09:16:53.341Z,6.20
2023-01-12T09:19:25.083Z,6.20
2023-01-12T09:21:56.863Z,6.10
2023-01-12T09:24:28.659Z,6.10
2023-01-12T09:27:01.296Z,6.20
2023-01-12T09:29:32.991Z,6.20
2023-01-12T09:32:04.954Z,6.20
2023-01-12T09:34:36.734Z,6.30
2023-01-12T09:37:08.472Z,6.30
2023-01-12T09:39:40.241Z,6.30
2023-01-12T09:42:39.884Z,6.40
2023-01-12T09:45:40.677Z,6.40
2023-01-12T09:48:14.189Z,6.40
2023-01-12T09:51:04.878Z,6.50
2023-01-12T09:53:40.249Z,6.50
2023-01-12T09:56:18.208Z,6.50
2023-01-12T09:58:55.465Z,6.60
2023-01-12T10:01:30.092Z,6.60
2023-01-12T10:04:03.203Z,6.60
2023-01-12T10:06:36.053Z,6.70
2023-01-12T10:09:14.810Z,6.70
2023-01-12T10:12:15.277Z,6.80
2023-01-12T10:15:23.553Z,6.80
2023-01-12T10:18:12.548Z,6.90
2023-01-12T10:20:45.052Z,6.90
2023-01-12T10:23:24.417Z,7.00
2023-01-12T10:26:20.888Z,7.10
2023-01-12T10:28:54.996Z,7.10
2023-01-12T10:31:27.054Z,7.20
2023-01-12T10:34:05.051Z,7.30
2023-01-12T10:36:43.757Z,7.40
2023-01-12T10:39:35.212Z,7.50
2023-01-12T10:42:32.614Z,7.60
2023-01-12T10:45:10.225Z,7.70
2023-01-12T10:47:43.850Z,7.80
2023-01-12T10:50:32.621Z,7.90
2023-01-12T10:53:13.645Z,8.00
2023-01-12T10:55:47.399Z,8.00
2023-01-12T10:58:29.263Z,8.10
2023-01-12T11:01:01.252Z,8.20
2023-01-12T11:03:40.796Z,8.20
2023-01-12T11:06:32.908Z,8.20
2023-01-12T11:09:18.494Z,8.10
2023-01-12T11:11:57.674Z,8.00
2023-01-12T11:14:38.003Z,7.90
2023-01-12T11:17:31.524Z,7.80
2023-01-12T11:20:13.409Z,7.80
2023-01-12T11:22:46.571Z,7.70
2023-01-12T11:25:26.335Z,7.70
2023-01-12T11:28:04.166Z,7.70
2023-01-12T11:30:58.394Z,7.70
2023-01-12T11:33:38.783Z,7.60
2023-01-12T11:36:34.329Z,7.60
2023-01-12T11:39:12.691Z,7.60
2023-01-12T11:42:09.346Z,7.60
2023-01-12T11:44:50.513Z,7.70
2023-01-12T11:47:26.926Z,7.60
2023-01-12T11:50:02.623Z,7.60
2023-01-12T11:52:35.241Z,7.60
2023-01-12T11:55:14.267Z,7.50
2023-01-12T11:58:09.372Z,7.50
2023-01-12T12:01:06.448Z,7.50
2023-01-12T12:03:59.327Z,7.60
2023-01-12T12:06:38.743Z,7.60
2023-01-12T12:09:10.460Z,7.70
2023-01-12T12:11:49.414Z,7.70
2023-01-12T12:14:42.972Z,7.70
2023-01-12T12:17:44.789Z,7.80
2023-01-12T12:20:22.194Z,7.80
2023-01-12T12:23:08.822Z,7.90
2023-01-12T12:25:52.701Z,7.90
2023-01-12T12:28:39.034Z,8.00
2023-01-12T12:31:29.334Z,7.90
2023-01-12T12:34:26.429Z,7.90
2023-01-12T12:37:31.885Z,7.90
2023-01-12T12:40:22.149Z,7.80
2023-01-12T12:43:15.290Z,7.70
2023-01-12T12:46:01.467Z,7.60
2023-01-12T12:48:48.063Z,7.50
2023-01-12T12:51:22.701Z,7.50
2023-01-12T12:53:55.139Z,7.40
2023-01-12T12:56:29.063Z,7.40
2023-01-12T12:59:04.220Z,7.40
2023-01-12T13:01:39.482Z,7.30
2023-01-12T13:04:12.773Z,7.30
2023-01-12T13:06:47.723Z,7.30
2023-01-12T13:09:19.407Z,7.30
2023-01-12T13:11:54.124Z,7.30
2023-01-12T13:14:43.346Z,7.30
2023-01-12T13:17:23.571Z,7.30
2023-01-12T13:20:20.121Z,7.30
2023-01-12T13:22:56.886Z,7.40
2023-01-12T13:25:31.596Z,7.40
2023-01-12T13:28:03.329Z,7.50
2023-01-12T13:30:48.685Z,7.50
2023-01-12T13:33:28.902Z,7.70
2023-01-12T13:36:04.001Z,7.70
2023-01-12T13:38:44.643Z,7.80
2023-01-12T13:41:55.330Z,7.90
2023-01-12T13:44:40.368Z,8.00
2023-01-12T13:47:25.635Z,8.00
2023-01-12T13:50:00.499Z,8.00
2023-01-12T13:52:35.714Z,8.00
2023-01-12T13:55:22.391Z,8.10
2023-01-12T13:58:17.253Z,8.20
2023-01-12T14:01:01.142Z,8.20
2023-01-12T14:03:48.001Z,8.20
2023-01-12T14:06:33.876Z,8.30
2023-01-12T14:09:23.724Z,8.30
2023-01-12T14:12:16.221Z,8.20
2023-01-12T14:15:58.387Z,8.20
2023-01-12T14:18:42.706Z,8.20
2023-01-12T14:21:33.296Z,8.20
2023-01-12T14:24:19.914Z,8.20
2023-01-12T14:26:51.749Z,8.10
2023-01-12T14:29:23.464Z,6.70
2023-01-12T14:31:55.378Z,8.10
2023-01-12T14:34:34.905Z,8.10
2023-01-12T14:37:23.073Z,8.10
2023-01-12T14:39:55.859Z,8.10
2023-01-12T14:42:46.455Z,8.10
2023-01-12T14:45:37.215Z,8.10
2023-01-12T14:48:25.851Z,8.10
2023-01-12T14:51:37.690Z,8.10
2023-01-12T14:54:09.393Z,8.10
2023-01-12T14:56:56.574Z,8.10
2023-01-12T14:59:33.970Z,8.10
2023-01-12T15:02:14.837Z,8.10
2023-01-12T15:05:03.333Z,8.10
2023-01-12T15:07:53.064Z,8.00
2023-01-12T15:10:30.415Z,8.00
2023-01-12T15:13:25.906Z,7.90
2023-01-12T15:16:16.403Z,7.90
2023-01-12T15:19:06.777Z,7.90
2023-01-12T15:21:59.426Z,7.90
2023-01-12T15:24:53.654Z,7.90
2023-01-12T15:27:26.628Z,7.90
2023-01-12T15:29:58.327Z,7.90
2023-01-12T15:32:51.416Z,7.90
2023-01-12T15:35:26.417Z,7.80
2023-01-12T15:37:59.481Z,7.80
2023-01-12T15:40:32.976Z,7.80
2023-01-12T15:43:04.763Z,7.80
2023-01-12T15:45:41.833Z,7.70
2023-01-12T15:48:14.336Z,7.70
2023-01-12T15:50:46.672Z,7.70
2023-01-12T15:53:24.047Z,7.80
2023-01-12T15:55:55.839Z,7.80
2023-01-12T15:58:28.626Z,7.80
2023-01-12T16:01:00.520Z,7.80
2023-01-12T16:04:00.451Z,7.80
2023-01-12T16:06:31.026Z,7.80
2023-01-12T16:09:02.757Z,7.80
2023-01-12T16:11:34.493Z,7.80
2023-01-12T16:14:06.313Z,7.80
2023-01-12T16:16:38.259Z,7.80
2023-01-12T16:19:12.621Z,7.80
2023-01-12T16:21:44.319Z,7.80
2023-01-12T16:24:16.035Z,7.80
2023-01-12T16:26:47.771Z,7.80
2023-01-12T16:29:19.629Z,7.80
2023-01-12T16:31:51.451Z,7.70
2023-01-12T16:34:24.378Z,7.70
2023-01-12T16:36:56.156Z,7.80
2023-01-12T16:39:28.427Z,7.80
2023-01-12T16:42:03.418Z,7.70
2023-01-12T16:44:37.787Z,7.70
2023-01-12T16:47:14.800Z,7.70
2023-01-12T16:49:50.960Z,7.60
2023-01-12T16:52:22.841Z,7.60
2023-01-12T16:54:54.584Z,7.60
2023-01-12T16:57:26.313Z,7.60
2023-01-12T16:59:59.175Z,7.70
2023-01-12T17:02:31.628Z,7.70
2023-01-12T17:05:04.025Z,7.80
2023-01-12T17:07:36.152Z,7.70
2023-01-12T17:10:08.503Z,7.70
2023-01-12T17:12:57.813Z,7.70
2023-01-12T17:15:34.761Z,7.70
2023-01-12T17:18:06.805Z,7.70
2023-01-12T17:20:38.639Z,7.70
2023-01-12T17:23:10.926Z,7.70
2023-01-12T17:25:42.941Z,7.70
2023-01-12T17:28:14.700Z,7.70
2023-01-12T17:30:46.562Z,7.70
2023-01-12T17:33:18.955Z,7.60
2023-01-12T17:35:50.753Z,7.70
2023-01-12T17:38:22.686Z,7.60
2023-01-12T17:40:54.383Z,7.60
2023-01-12T17:43:26.970Z,7.60
2023-01-12T17:46:00.105Z,7.60
2023-01-12T17:48:31.965Z,7.60
2023-01-12T17:51:11.598Z,7.50
2023-01-12T17:53:43.335Z,7.50
2023-01-12T17:56:15.109Z,7.50
2023-01-12T17:58:50.822Z,7.50
2023-01-12T18:01:24.506Z,7.60
2023-01-12T18:03:57.261Z,7.60
2023-01-12T18:06:29.046Z,7.60
2023-01-12T18:09:00.881Z,7.60
2023-01-12T18:11:33.493Z,7.60
2023-01-12T18:14:05.882Z,7.60
2023-01-12T18:16:37.689Z,7.60
2023-01-12T18:19:10.452Z,7.60
2023-01-12T18:21:42.182Z,7.60
2023-01-12T18:24:13.928Z,7.60
2023-01-12T18:26:45.680Z,7.50
2023-01-12T18:29:17.411Z,7.50
2023-01-12T18:31:49.204Z,7.40
2023-01-12T18:34:21.026Z,7.40
2023-01-12T18:36:52.785Z,7.40
2023-01-12T18:39:24.670Z,7.40
2023-01-12T18:42:15.063Z,7.40
2023-01-12T18:44:48.338Z,7.40
2023-01-12T18:47:38.859Z,7.40
2023-01-12T18:50:29.789Z,7.40
2023-01-12T18:53:20.206Z,7.40
2023-01-12T18:55:57.379Z,7.30
2023-01-12T18:58:34.497Z,7.40
2023-01-12T19:01:06.215Z,7.50
2023-01-12T19:03:37.950Z,7.30
2023-01-12T19:06:20.268Z,7.30
2023-01-12T19:09:10.782Z,7.40
2023-01-12T19:11:42.556Z,7.40
2023-01-12T19:14:32.863Z,7.40
2023-01-12T19:17:23.499Z,7.30
2023-01-12T19:20:03.101Z,7.30
2023-01-12T19:22:53.726Z,7.30
2023-01-12T19:25:44.395Z,7.20
2023-01-12T19:28:35.367Z,7.20
2023-01-12T19:31:12.266Z,7.20
2023-01-12T19:33:44.281Z,7.20
2023-01-12T19:36:16.248Z,7.20
2023-01-12T19:38:50.942Z,7.10
2023-01-12T19:41:41.253Z,7.20
2023-01-12T19:44:12.944Z,7.20
2023-01-12T19:46:44.749Z,7.20
2023-01-12T19:49:17.632Z,7.30
2023-01-12T19:51:50.693Z,7.30
2023-01-12T19:54:22.420Z,7.30
2023-01-12T19:56:54.135Z,7.30
2023-01-12T19:59:26.833Z,7.30
2023-01-12T20:01:58.583Z,7.30
2023-01-12T20:04:30.291Z,7.30
2023-01-12T20:07:02.023Z,7.30
2023-01-12T20:09:33.878Z,7.30
2023-01-12T20:12:06.224Z,7.30
2023-01-12T20:14:37.940Z,7.80
2023-01-12T20:17:10.079Z,7.20
2023-01-12T20:19:41.784Z,7.20
2023-01-12T20:22:13.452Z,7.20
2023-01-12T20:24:46.429Z,7.10
2023-01-12T20:27:18.226Z,7.10
2023-01-12T20:29:50.043Z,7.10
2023-01-12T20:32:21.830Z,7.10
2023-01-12T20:34:53.659Z,7.10
2023-01-12T20:37:25.507Z,7.00
2023-01-12T20:39:58.003Z,7.00
2023-01-12T20:42:31.694Z,6.90
2023-01-12T20:45:05.277Z,6.90
2023-01-12T20:47:37.189Z,6.80
2023-01-12T20:50:13.567Z,6.80
2023-01-12T20:52:47.998Z,6.80
2023-01-12T20:55:21.086Z,6.80
2023-01-12T20:57:52.816Z,6.80
2023-01-12T21:00:24.608Z,6.80
2023-01-12T21:02:56.362Z,6.70
2023-01-12T21:05:28.092Z,6.60
2023-01-12T21:08:07.369Z,6.60
2023-01-12T21:10:48.323Z,6.50
2023-01-12T21:13:21.026Z,6.50
2023-01-12T21:16:01.330Z,6.50
2023-01-12T21:18:34.086Z,6.60
2023-01-12T21:21:06.286Z,6.50
2023-01-12T21:23:38.075Z,6.50
2023-01-12T21:26:11.085Z,6.50
2023-01-12T21:28:43.075Z,6.50
2023-01-12T21:31:15.049Z,6.40
2023-01-12T21:33:46.808Z,6.40
2023-01-12T21:36:19.811Z,6.40
2023-01-12T21:38:52.390Z,6.40
2023-01-12T21:41:24.886Z,6.40
2023-01-12T21:43:56.650Z,6.40
2023-01-12T21:46:31.360Z,6.40
2023-01-12T21:49:07.206Z,6.40
2023-01-12T21:51:39.202Z,6.30
2023-01-12T21:54:10.997Z,6.30
2023-01-12T21:56:42.705Z,6.30
2023-01-12T21:59:14.561Z,6.30
2023-01-12T22:01:46.386Z,6.30
2023-01-12T22:04:18.202Z,6.30
2023-01-12T22:06:50.949Z,6.30
2023-01-12T22:09:23.631Z,6.20
2023-01-12T22:11:55.317Z,6.20
2023-01-12T22:14:27.024Z,6.20
2023-01-12T22:16:58.819Z,6.20
2023-01-12T22:19:31.492Z,6.20
2023-01-12T22:22:03.240Z,6.20
2023-01-12T22:24:34.935Z,6.20
2023-01-12T22:27:06.600Z,6.20
2023-01-12T22:29:38.316Z,6.30
2023-01-12T22:32:09.999Z,6.20
2023-01-12T22:34:41.679Z,6.20
2023-01-12T22:37:13.475Z,6.20
2023-01-12T22:39:45.165Z,6.20
2023-01-12T22:42:16.840Z,6.30
2023-01-12T22:44:48.553Z,6.30
2023-01-12T22:47:20.226Z,6.30
2023-01-12T22:49:51.932Z,6.30
2023-01-12T22:52:23.613Z,6.30
2023-01-12T22:54:55.298Z,6.30
2023-01-12T22:57:27.024Z,6.30
2023-01-12T22:59:58.724Z,6.20
2023-01-12T23:02:49.204Z,6.30
2023-01-12T23:05:21.080Z,6.20
2023-01-12T23:07:52.954Z,6.20
2023-01-12T23:10:25.192Z,6.20
2023-01-12T23:13:15.722Z,6.20
2023-01-12T23:15:50.399Z,6.20
2023-01-12T23:18:31.619Z,6.20
2023-01-12T23:21:14.230Z,6.20
2023-01-12T23:23:48.666Z,6.20
2023-01-12T23:26:24.753Z,6.30
2023-01-12T23:28:59.388Z,6.10
2023-01-12T23:31:33.330Z,6.40
2023-01-12T23:34:05.293Z,6.50
2023-01-12T23:36:37.124Z,6.50
2023-01-12T23:39:11.441Z,6.50
2023-01-12T23:41:44.132Z,6.60
2023-01-12T23:44:16.008Z,6.60
2023-01-12T23:46:47.858Z,6.60
2023-01-12T23:49:19.661Z,6.50
2023-01-12T23:51:51.503Z,6.50
2023-01-12T23:54:23.358Z,6.50
2023-01-12T23:56:55.257Z,6.60
2023-01-12T23:59:27.242Z,6.60
